createdAt,value
2022-10-11T00:01:22.608Z,1.00
2022-10-11T00:03:52.575Z,1.00
2022-10-11T00:06:19.792Z,1.80
2022-10-11T00:08:51.505Z,1.02
2022-10-11T00:11:18.800Z,0.80
2022-10-11T00:13:46.084Z,1.05
2022-10-11T00:16:14.333Z,1.30
2022-10-11T00:18:45.110Z,1.33
2022-10-11T00:21:18.095Z,1.17
2022-10-11T00:23:48.263Z,1.25
2022-10-11T00:26:18.329Z,1.10
2022-10-11T00:28:45.791Z,1.25
2022-10-11T00:31:18.927Z,1.40
2022-10-11T00:33:46.288Z,1.35
2022-10-11T00:36:18.427Z,1.58
2022-10-11T00:38:54.052Z,1.00
2022-10-11T00:41:28.697Z,1.42
2022-10-11T00:44:14.992Z,1.10
2022-10-11T00:46:46.001Z,1.08
2022-10-11T00:49:19.849Z,2.28
2022-10-11T00:51:55.513Z,1.40
2022-10-11T00:54:26.701Z,0.82
2022-10-11T00:57:04.067Z,1.17
2022-10-11T00:59:37.453Z,1.08
2022-10-11T01:02:10.183Z,1.05
2022-10-11T01:04:44.271Z,1.15
2022-10-11T01:07:12.265Z,1.52
2022-10-11T01:09:43.288Z,1.15
2022-10-11T01:12:27.019Z,1.13
2022-10-11T01:15:18.156Z,1.10
2022-10-11T01:18:10.679Z,1.00
2022-10-11T01:20:57.626Z,1.08
2022-10-11T01:23:50.392Z,1.50
2022-10-11T01:26:43.391Z,1.10
2022-10-11T01:29:46.586Z,1.30
2022-10-11T01:32:40.219Z,1.00
2022-10-11T01:35:17.550Z,1.17
2022-10-11T01:37:49.859Z,1.45
2022-10-11T01:40:44.980Z,1.02
2022-10-11T01:43:18.553Z,1.77
2022-10-11T01:45:50.875Z,1.20
2022-10-11T01:48:23.206Z,1.30
2022-10-11T01:50:59.242Z,1.67
2022-10-11T01:53:44.989Z,1.10
2022-10-11T01:56:40.092Z,1.15
2022-10-11T01:59:21.290Z,1.50
2022-10-11T02:02:20.096Z,1.67
2022-10-11T02:05:25.453Z,1.40
2022-10-11T02:08:28.165Z,1.35
2022-10-11T02:11:13.135Z,1.15
2022-10-11T02:13:41.924Z,1.40
2022-10-11T02:16:14.626Z,1.40
2022-10-11T02:18:51.060Z,1.52
2022-10-11T02:21:22.189Z,1.40
2022-10-11T02:24:03.635Z,1.48
2022-10-11T02:26:37.523Z,1.23
2022-10-11T02:29:08.341Z,1.40
2022-10-11T02:31:39.644Z,1.48
2022-10-11T02:34:26.134Z,1.50
2022-10-11T02:37:12.046Z,1.42
2022-10-11T02:39:47.204Z,1.30
2022-10-11T02:42:21.047Z,1.45
2022-10-11T02:45:00.149Z,1.48
2022-10-11T02:47:37.188Z,1.73
2022-10-11T02:50:05.130Z,1.30
2022-10-11T02:52:32.453Z,1.40
2022-10-11T02:55:06.781Z,1.50
2022-10-11T02:57:34.431Z,1.90
2022-10-11T03:00:01.959Z,1.40
2022-10-11T03:02:31.713Z,1.60
2022-10-11T03:05:02.126Z,1.85
2022-10-11T03:12:31.501Z,1.17
2022-10-11T03:14:58.787Z,1.50
2022-10-11T03:17:36.698Z,1.60
2022-10-11T03:20:08.640Z,1.33
2022-10-11T03:22:35.716Z,2.28
2022-10-11T03:25:04.624Z,1.90
2022-10-11T03:27:36.693Z,1.73
2022-10-11T03:32:35.031Z,1.50
2022-10-11T03:35:04.846Z,1.60
2022-10-11T03:37:38.689Z,1.60
2022-10-11T03:40:10.209Z,1.90
2022-10-11T03:42:38.780Z,2.00
2022-10-11T03:45:11.803Z,2.08
2022-10-11T03:47:42.959Z,1.85
2022-10-11T03:50:10.286Z,1.85
2022-10-11T03:52:44.653Z,1.60
2022-10-11T03:55:12.169Z,1.70
2022-10-11T03:57:39.611Z,2.03
2022-10-11T04:00:08.962Z,2.13
2022-10-11T04:02:39.413Z,1.83
2022-10-11T04:05:08.678Z,1.90
2022-10-11T04:07:36.232Z,2.30
2022-10-11T04:10:03.594Z,1.67
2022-10-11T04:12:32.425Z,2.05
2022-10-11T04:15:05.907Z,1.70
2022-10-11T04:17:34.548Z,2.05
2022-10-11T04:20:01.842Z,1.83
2022-10-11T04:22:30.200Z,1.90
2022-10-11T04:25:01.063Z,1.70
2022-10-11T04:27:33.741Z,2.13
2022-10-11T04:30:04.811Z,1.73
2022-10-11T04:32:49.779Z,2.25
2022-10-11T04:35:19.727Z,2.15
2022-10-11T04:37:47.040Z,1.95
2022-10-11T04:40:21.551Z,2.00
2022-10-11T04:42:56.657Z,1.90
2022-10-11T04:45:24.016Z,1.90
2022-10-11T04:47:51.646Z,2.15
2022-10-11T04:50:21.881Z,1.88
2022-10-11T04:52:49.334Z,1.88
2022-10-11T04:55:17.323Z,2.30
2022-10-11T04:58:00.977Z,1.90
2022-10-11T05:00:37.288Z,1.65
2022-10-11T05:03:07.303Z,1.95
2022-10-11T05:05:35.136Z,1.98
2022-10-11T05:08:03.107Z,2.17
2022-10-11T05:10:33.729Z,1.92
2022-10-11T05:13:01.234Z,1.60
2022-10-11T05:15:31.242Z,2.28
2022-10-11T05:18:00.548Z,1.90
2022-10-11T05:20:38.352Z,1.50
2022-10-11T05:23:05.654Z,1.67
2022-10-11T05:25:36.836Z,1.88
2022-10-11T05:28:07.631Z,2.40
2022-10-11T05:30:39.413Z,2.17
2022-10-11T05:33:33.956Z,1.92
2022-10-11T05:36:04.722Z,2.60
2022-10-11T05:38:35.518Z,1.80
2022-10-11T05:41:04.971Z,1.85
2022-10-11T05:43:41.981Z,1.80
2022-10-11T05:46:09.645Z,2.47
2022-10-11T05:48:38.183Z,2.40
2022-10-11T05:51:16.464Z,2.38
2022-10-11T05:53:45.069Z,2.78
2022-10-11T05:56:24.061Z,3.22
2022-10-11T05:59:02.381Z,3.67
2022-10-11T06:01:43.233Z,3.05
2022-10-11T06:04:16.866Z,3.30
2022-10-11T06:06:52.295Z,2.80
2022-10-11T06:09:22.094Z,2.75
2022-10-11T06:11:54.584Z,2.67
2022-10-11T06:14:32.576Z,2.50
2022-10-11T06:17:24.220Z,2.42
2022-10-11T06:22:39.163Z,3.00
2022-10-11T06:25:11.462Z,3.10
2022-10-11T06:27:39.315Z,2.72
2022-10-11T06:30:12.789Z,3.10
2022-10-11T06:32:42.352Z,3.00
2022-10-11T06:35:11.072Z,2.65
2022-10-11T06:37:41.533Z,3.15
2022-10-11T06:40:14.592Z,2.95
2022-10-11T06:42:52.531Z,3.38
2022-10-11T06:45:24.078Z,3.60
2022-10-11T06:48:07.767Z,4.03
2022-10-11T06:51:12.781Z,3.60
2022-10-11T06:54:04.195Z,3.70
2022-10-11T06:56:39.915Z,3.90
2022-10-11T06:59:45.813Z,4.72
2022-10-11T07:02:19.318Z,4.55
2022-10-11T07:04:55.992Z,4.43
2022-10-11T07:07:33.921Z,5.93
2022-10-11T07:10:45.238Z,6.38
2022-10-11T07:14:31.022Z,7.22
2022-10-11T07:36:28.926Z,3.58
2022-10-11T07:47:59.108Z,3.78
2022-10-11T08:15:51.205Z,4.35
2022-10-11T08:29:44.018Z,4.35
2022-10-11T08:39:49.233Z,4.53
2022-10-11T08:42:44.656Z,3.97
2022-10-11T08:45:52.755Z,4.40
2022-10-11T08:52:43.219Z,5.32
2022-10-11T08:56:10.358Z,4.00
2022-10-11T08:59:07.696Z,4.35
2022-10-11T09:02:03.251Z,5.70
2022-10-11T09:04:35.368Z,4.75
2022-10-11T09:07:32.321Z,5.50
2022-10-11T09:10:29.147Z,4.75
2022-10-11T09:12:59.610Z,6.65
2022-10-11T09:16:22.570Z,5.15
2022-10-11T09:19:17.943Z,6.05
2022-10-11T09:22:47.155Z,6.25
2022-10-11T09:25:36.810Z,6.35
2022-10-11T09:28:31.337Z,5.80
2022-10-11T09:31:00.107Z,5.13
2022-10-11T09:33:46.874Z,5.30
2022-10-11T09:40:16.795Z,5.25
2022-10-11T09:42:51.686Z,4.65
2022-10-11T09:45:26.940Z,4.55
2022-10-11T09:47:56.838Z,4.65
2022-10-11T09:50:29.918Z,4.45
2022-10-11T09:53:15.749Z,4.38
2022-10-11T09:56:10.007Z,4.20
2022-10-11T09:58:41.192Z,4.40
2022-10-11T10:01:34.718Z,4.07
2022-10-11T10:07:13.737Z,4.50
2022-10-11T10:10:24.883Z,4.85
2022-10-11T10:13:37.321Z,3.92
2022-10-11T10:20:48.220Z,4.38
2022-10-11T10:23:33.142Z,4.43
2022-10-11T10:26:36.666Z,4.03
2022-10-11T10:29:21.893Z,4.70
2022-10-11T10:32:14.751Z,4.13
2022-10-11T10:35:12.881Z,3.30
2022-10-11T10:37:55.915Z,4.80
2022-10-11T10:41:21.228Z,3.85
2022-10-11T10:44:30.206Z,5.22
2022-10-11T10:47:23.913Z,4.80
2022-10-11T10:50:21.580Z,5.00
2022-10-11T10:56:26.477Z,4.03
2022-10-11T10:59:44.906Z,3.75
2022-10-11T11:02:58.045Z,4.90
2022-10-11T11:05:48.483Z,4.18
2022-10-11T11:08:30.417Z,4.05
2022-10-11T11:12:08.246Z,3.47
2022-10-11T11:15:40.516Z,3.17
2022-10-11T11:18:30.493Z,2.40
2022-10-11T11:21:25.917Z,2.05
2022-10-11T11:24:14.777Z,2.13
2022-10-11T11:27:10.492Z,1.90
2022-10-11T11:30:06.129Z,2.00
2022-10-11T11:33:00.519Z,2.17
2022-10-11T11:41:39.730Z,1.75
2022-10-11T11:44:32.422Z,1.63
2022-10-11T11:50:54.290Z,1.50
2022-10-11T11:53:50.403Z,1.83
2022-10-11T11:56:47.977Z,1.67
2022-10-11T11:59:31.869Z,1.40
2022-10-11T12:02:20.091Z,1.15
2022-10-11T12:05:27.441Z,1.50
2022-10-11T12:08:34.639Z,1.40
2022-10-11T12:11:07.767Z,0.68
2022-10-11T12:14:00.191Z,0.65
2022-10-11T12:16:31.318Z,0.80
2022-10-11T12:19:05.056Z,0.80
2022-10-11T12:22:29.306Z,0.77
2022-10-11T12:25:03.952Z,0.95
2022-10-11T12:27:46.234Z,0.70
2022-10-11T12:30:48.427Z,0.68
2022-10-11T12:34:06.412Z,0.65
2022-10-11T12:37:06.759Z,1.48
2022-10-11T12:39:45.017Z,0.80
2022-10-11T12:42:39.943Z,0.80
2022-10-11T12:45:25.085Z,0.80
2022-10-11T12:51:45.725Z,0.80
2022-10-11T12:54:45.895Z,0.82
2022-10-11T12:57:49.583Z,1.30
2022-10-11T13:00:32.181Z,1.40
2022-10-11T13:03:06.533Z,1.23
2022-10-11T13:05:48.677Z,1.30
2022-10-11T13:08:41.248Z,1.30
2022-10-11T13:14:06.348Z,1.10
2022-10-11T13:17:34.477Z,0.95
2022-10-11T13:20:31.306Z,1.00
2022-10-11T13:23:03.551Z,1.27
2022-10-11T13:25:39.828Z,1.42
2022-10-11T13:28:18.348Z,1.13
2022-10-11T13:30:57.399Z,1.33
2022-10-11T13:33:47.174Z,1.40
2022-10-11T13:36:29.549Z,1.52
2022-10-11T13:39:00.983Z,0.90
2022-10-11T13:41:38.963Z,1.30
2022-10-11T13:44:17.660Z,1.42
2022-10-11T13:46:50.257Z,1.80
2022-10-11T13:49:35.464Z,1.05
2022-10-11T13:52:27.610Z,1.15
2022-10-11T13:58:11.213Z,1.40
2022-10-11T14:01:22.120Z,1.52
2022-10-11T14:03:57.128Z,1.48
2022-10-11T14:06:28.922Z,1.23
2022-10-11T14:11:54.394Z,1.83
2022-10-11T14:14:45.197Z,1.65
2022-10-11T14:17:32.632Z,1.45
2022-10-11T14:20:41.393Z,1.23
2022-10-11T14:26:08.627Z,1.48
2022-10-11T14:28:53.064Z,1.48
2022-10-11T14:34:28.013Z,1.63
2022-10-11T14:36:57.157Z,2.08
2022-10-11T14:39:43.065Z,1.48
2022-10-11T14:42:12.262Z,1.40
2022-10-11T14:44:55.727Z,1.73
2022-10-11T14:47:31.363Z,1.73
2022-10-11T14:50:01.295Z,1.58
2022-10-11T14:52:35.779Z,1.20
2022-10-11T14:55:24.701Z,2.00
2022-10-11T15:00:51.818Z,2.90
2022-10-11T15:03:32.279Z,2.95
2022-10-11T15:06:03.525Z,2.45
2022-10-11T15:08:31.503Z,2.40
2022-10-11T15:10:59.051Z,6.93
2022-10-11T15:16:28.738Z,2.80
2022-10-11T15:19:00.437Z,2.40
2022-10-11T15:24:09.980Z,2.20
2022-10-11T15:26:41.327Z,1.73
2022-10-11T15:29:21.315Z,2.17
2022-10-11T15:31:53.806Z,1.45
2022-10-11T15:34:21.199Z,2.05
2022-10-11T15:36:50.289Z,1.73
2022-10-11T15:39:42.113Z,2.78
2022-10-11T15:42:12.800Z,1.85
2022-10-11T15:44:41.632Z,3.78
2022-10-11T15:47:29.494Z,2.67
2022-10-11T15:49:58.160Z,1.88
2022-10-11T15:52:51.545Z,2.03
2022-10-11T15:55:25.565Z,2.58
2022-10-11T15:57:53.675Z,1.95
2022-10-11T16:00:26.095Z,2.95
2022-10-11T16:02:55.510Z,2.70
2022-10-11T16:05:25.793Z,2.75
2022-10-11T16:08:06.096Z,2.38
2022-10-11T16:11:02.242Z,2.33
2022-10-11T16:13:37.360Z,2.78
2022-10-11T16:16:31.090Z,2.67
2022-10-11T16:18:59.306Z,2.65
2022-10-11T16:21:30.410Z,2.90
2022-10-11T16:24:17.266Z,2.38
2022-10-11T16:29:51.175Z,2.33
2022-10-11T16:32:26.613Z,2.83
2022-10-11T16:35:02.176Z,2.28
2022-10-11T16:37:55.135Z,2.75
2022-10-11T16:43:37.429Z,2.13
2022-10-11T16:46:06.452Z,1.63
2022-10-11T16:48:39.982Z,1.88
2022-10-11T16:51:18.457Z,1.70
2022-10-11T16:53:55.967Z,2.75
2022-10-11T16:56:26.147Z,2.95
2022-10-11T16:58:55.322Z,3.65
2022-10-11T17:01:29.496Z,3.90
2022-10-11T17:04:02.342Z,2.90
2022-10-11T17:06:40.562Z,4.03
2022-10-11T17:09:11.827Z,5.72
2022-10-11T17:11:46.722Z,6.38
2022-10-11T17:14:34.185Z,4.30
2022-10-11T17:17:05.844Z,4.93
2022-10-11T17:19:45.583Z,4.00
2022-10-11T17:22:23.659Z,5.10
2022-10-11T17:24:54.160Z,5.65
2022-10-11T17:27:55.456Z,5.38
2022-10-11T17:33:11.284Z,7.07
2022-10-11T17:35:48.473Z,7.13
2022-10-11T17:38:20.882Z,7.45
2022-10-11T17:40:50.350Z,6.63
2022-10-11T17:43:45.538Z,5.70
2022-10-11T17:46:22.417Z,8.00
2022-10-11T17:48:57.298Z,6.63
2022-10-11T17:51:27.626Z,5.70
2022-10-11T17:53:59.844Z,5.40
2022-10-11T17:57:01.797Z,8.60
2022-10-11T18:02:14.913Z,5.38
2022-10-11T18:05:10.320Z,5.07
2022-10-11T18:07:52.822Z,5.60
2022-10-11T18:10:30.194Z,5.63
2022-10-11T18:13:06.297Z,4.97
2022-10-11T18:15:41.101Z,5.47
2022-10-11T18:18:14.356Z,5.82
2022-10-11T18:20:52.499Z,4.68
2022-10-11T18:23:25.227Z,4.68
2022-10-11T18:25:56.270Z,4.78
2022-10-11T18:28:36.378Z,3.53
2022-10-11T18:31:19.006Z,3.75
2022-10-11T18:33:47.795Z,4.65
2022-10-11T18:36:31.752Z,3.50
2022-10-11T18:39:03.111Z,4.03
2022-10-11T18:41:38.243Z,4.72
2022-10-11T18:47:03.556Z,3.08
2022-10-11T18:49:32.079Z,4.05
2022-10-11T18:52:06.806Z,3.53
2022-10-11T18:54:35.819Z,3.40
2022-10-11T18:57:04.445Z,3.75
2022-10-11T19:00:11.711Z,3.28
2022-10-11T19:02:58.985Z,2.85
2022-10-11T19:09:53.126Z,3.70
2022-10-11T19:12:20.882Z,2.40
2022-10-11T19:14:48.884Z,2.40
2022-10-11T19:17:18.089Z,3.03
2022-10-11T19:19:46.251Z,2.72
2022-10-11T19:22:16.887Z,3.33
2022-10-11T19:24:48.756Z,3.97
2022-10-11T19:27:19.680Z,4.00
2022-10-11T19:29:47.169Z,4.32
2022-10-11T19:32:22.539Z,3.40
2022-10-11T19:34:51.258Z,3.40
2022-10-11T19:37:28.489Z,4.00
2022-10-11T19:39:56.678Z,3.35
2022-10-11T19:42:28.599Z,3.60
2022-10-11T19:44:59.798Z,3.70
2022-10-11T19:47:27.049Z,3.08
2022-10-11T19:49:57.149Z,2.70
2022-10-11T19:52:34.029Z,1.88
2022-10-11T19:55:07.691Z,2.85
2022-10-11T19:57:46.242Z,2.90
2022-10-11T20:00:20.344Z,2.55
2022-10-11T20:02:52.398Z,2.47
2022-10-11T20:05:21.459Z,2.10
2022-10-11T20:07:55.733Z,2.30
2022-10-11T20:10:25.690Z,2.45
2022-10-11T20:12:54.423Z,2.83
2022-10-11T20:15:24.135Z,2.38
2022-10-11T20:17:52.086Z,2.47
2022-10-11T20:20:22.680Z,2.72
2022-10-11T20:25:33.465Z,2.60
2022-10-11T20:28:00.749Z,2.60
2022-10-11T20:30:41.196Z,3.42
2022-10-11T20:33:16.104Z,2.30
2022-10-11T20:36:14.382Z,1.98
2022-10-11T20:38:53.476Z,2.60
2022-10-11T20:41:37.347Z,2.70
2022-10-11T20:44:06.446Z,2.00
2022-10-11T20:46:37.384Z,2.35
2022-10-11T20:49:10.704Z,2.65
2022-10-11T20:51:53.436Z,2.50
2022-10-11T20:54:23.686Z,2.28
2022-10-11T20:57:00.618Z,2.45
2022-10-11T20:59:31.343Z,2.45
2022-10-11T21:02:01.761Z,2.58
2022-10-11T21:04:33.364Z,2.60
2022-10-11T21:07:09.492Z,2.25
2022-10-11T21:09:40.102Z,2.40
2022-10-11T21:12:10.263Z,1.88
2022-10-11T21:14:40.243Z,2.15
2022-10-11T21:17:18.415Z,1.77
2022-10-11T21:19:46.567Z,1.90
2022-10-11T21:22:20.952Z,2.90
2022-10-11T21:27:35.670Z,2.13
2022-10-11T21:30:08.610Z,2.22
2022-10-11T21:32:43.884Z,1.55
2022-10-11T21:35:13.870Z,1.65
2022-10-11T21:37:41.795Z,2.28
2022-10-11T21:40:12.370Z,2.08
2022-10-11T21:42:43.802Z,1.58
2022-10-11T21:51:00.978Z,3.58
2022-10-11T21:53:37.009Z,2.38
2022-10-11T21:56:07.395Z,1.90
2022-10-11T21:58:42.274Z,1.80
2022-10-11T22:01:18.529Z,1.65
2022-10-11T22:03:49.600Z,1.65
2022-10-11T22:06:22.768Z,1.55
2022-10-11T22:08:50.967Z,1.92
2022-10-11T22:11:19.004Z,1.45
2022-10-11T22:14:02.286Z,1.67
2022-10-11T22:16:40.814Z,1.30
2022-10-11T22:19:08.650Z,1.83
2022-10-11T22:21:45.918Z,1.55
2022-10-11T22:24:16.266Z,1.40
2022-10-11T22:26:46.851Z,1.70
2022-10-11T22:29:21.381Z,1.58
2022-10-11T22:31:54.870Z,1.65
2022-10-11T22:34:23.104Z,1.38
2022-10-11T22:36:52.035Z,1.80
2022-10-11T22:39:21.697Z,1.35
2022-10-11T22:44:41.304Z,2.08
2022-10-11T22:47:12.831Z,1.23
2022-10-11T22:52:09.494Z,1.83
2022-10-11T22:54:44.515Z,1.27
2022-10-11T22:57:14.660Z,1.17
2022-10-11T22:59:45.879Z,1.67
2022-10-11T23:02:22.066Z,1.35
2022-10-11T23:04:56.389Z,1.58
2022-10-11T23:07:29.986Z,1.38
2022-10-11T23:09:58.267Z,1.50
2022-10-11T23:12:28.077Z,1.10
2022-10-11T23:14:56.129Z,1.02
2022-10-11T23:17:23.489Z,1.27
2022-10-11T23:19:56.297Z,1.13
2022-10-11T23:22:27.603Z,1.75
2022-10-11T23:24:58.407Z,1.38
2022-10-11T23:27:31.830Z,2.25
2022-10-11T23:30:02.481Z,1.27
2022-10-11T23:32:36.602Z,1.40
2022-10-11T23:35:05.628Z,1.98
2022-10-11T23:37:33.759Z,1.17
2022-10-11T23:40:01.437Z,1.45
2022-10-11T23:42:42.785Z,1.02
2022-10-11T23:45:15.237Z,2.47
2022-10-11T23:47:48.148Z,1.20
2022-10-11T23:50:20.031Z,1.60
2022-10-11T23:53:01.748Z,1.40
2022-10-11T23:55:38.506Z,1.27
2022-10-11T23:58:08.587Z,2.13
